Time,TemperatureF,DewpointF,PressureIn,WindDirection,WindDirectionDegrees,WindSpeedMPH,WindSpeedGustMPH,Humidity,HourlyPrecipIn,Conditions,Clouds,dailyrainin,SoftwareType,DateUTC
2013-12-14 00:02:00,21.0,21.0,-100.00,NE,52,2.0,3.0,100,0.00,,,0.09,,2013-12-14 07:02:00,
2013-12-14 00:22:00,22.0,22.0,-100.00,North,360,4.0,7.0,100,0.00,,,0.09,,2013-12-14 07:22:00,
2013-12-14 00:33:00,22.0,22.0,-100.00,North,360,4.0,7.0,100,0.00,,,0.09,,2013-12-14 07:33:00,
2013-12-14 00:52:00,22.0,22.0,-100.00,ENE,72,2.0,3.0,100,0.00,,,0.09,,2013-12-14 07:52:00,
2013-12-14 01:02:00,22.0,22.0,-100.00,ENE,72,2.0,3.0,100,0.00,,,0.09,,2013-12-14 08:02:00,
2013-12-14 01:22:00,22.0,22.0,-100.00,East,93,2.0,3.0,100,0.00,,,0.09,,2013-12-14 08:22:00,
2013-12-14 01:32:00,22.0,22.0,-100.00,East,93,2.0,3.0,100,0.00,,,0.09,,2013-12-14 08:32:00,
2013-12-14 01:52:00,22.0,22.0,-100.00,SW,230,2.0,7.0,100,0.00,,,0.09,,2013-12-14 08:52:00,
2013-12-14 02:02:00,22.0,22.0,-100.00,SW,230,2.0,7.0,100,0.00,,,0.09,,2013-12-14 09:02:00,
2013-12-14 02:22:00,23.0,23.0,-100.00,SSE,154,3.0,4.0,100,0.00,,,0.09,,2013-12-14 09:22:00,
2013-12-14 02:33:00,23.0,23.0,-100.00,SSE,154,3.0,4.0,100,0.00,,,0.09,,2013-12-14 09:33:00,
2013-12-14 02:54:00,23.0,23.0,-100.00,SSE,157,2.0,4.0,100,0.00,,,0.09,,2013-12-14 09:54:00,
2013-12-14 03:03:00,23.0,23.0,-100.00,SSE,157,2.0,4.0,100,0.00,,,0.09,,2013-12-14 10:03:00,
2013-12-14 03:23:00,23.0,23.0,-100.00,ESE,120,2.0,4.0,100,0.00,,,0.09,,2013-12-14 10:23:00,
2013-12-14 03:30:00,22.0,22.0,-100.00,South,175,3.0,7.0,100,0.00,,,0.09,,2013-12-14 10:30:00,
2013-12-14 03:33:00,23.0,23.0,-100.00,ESE,120,2.0,4.0,100,0.00,,,0.09,,2013-12-14 10:33:00,
2013-12-14 03:53:00,23.0,23.0,-100.00,South,171,4.0,8.0,100,0.00,,,0.09,,2013-12-14 10:53:00,
2013-12-14 04:03:00,23.0,23.0,-100.00,South,171,4.0,8.0,100,0.00,,,0.09,,2013-12-14 11:03:00,
2013-12-14 04:22:00,22.0,22.0,-100.00,South,175,3.0,7.0,100,0.00,,,0.09,,2013-12-14 11:22:00,
2013-12-14 04:53:00,23.0,23.0,-100.00,SSE,151,2.0,4.0,100,0.00,,,0.09,,2013-12-14 11:53:00,
2013-12-14 05:01:00,23.0,23.0,-100.00,SSE,151,2.0,4.0,100,0.00,,,0.09,,2013-12-14 12:01:00,
2013-12-14 05:22:00,23.0,23.0,-100.00,SSW,192,2.0,4.0,100,0.00,,,0.09,,2013-12-14 12:22:00,
2013-12-14 05:32:00,23.0,23.0,-100.00,SSW,192,2.0,4.0,100,0.00,,,0.09,,2013-12-14 12:32:00,
2013-12-14 05:53:00,23.0,23.0,-100.00,SW,234,3.0,5.0,100,0.00,,,0.09,,2013-12-14 12:53:00,
2013-12-14 06:01:00,23.0,23.0,-100.00,SW,234,3.0,5.0,100,0.00,,,0.09,,2013-12-14 13:01:00,
2013-12-14 06:22:00,23.0,23.0,-100.00,SSE,148,2.0,4.0,100,0.00,,,0.09,,2013-12-14 13:22:00,
2013-12-14 06:32:00,23.0,23.0,-100.00,SSE,148,2.0,4.0,100,0.00,,,0.09,,2013-12-14 13:32:00,
2013-12-14 06:52:00,22.0,22.0,-100.00,South,186,5.0,10.0,100,0.00,,,0.09,,2013-12-14 13:52:00,
2013-12-14 07:01:00,22.0,22.0,-100.00,South,186,5.0,10.0,100,0.00,,,0.09,,2013-12-14 14:01:00,
2013-12-14 07:22:00,22.0,22.0,-100.00,SE,126,6.0,8.0,100,0.00,,,0.09,,2013-12-14 14:22:00,
2013-12-14 07:32:00,22.0,22.0,-100.00,SE,126,6.0,8.0,100,0.00,,,0.09,,2013-12-14 14:32:00,
2013-12-14 07:52:00,23.0,23.0,-100.00,SSW,202,5.0,12.0,100,0.00,,,0.09,,2013-12-14 14:52:00,
2013-12-14 08:02:00,23.0,23.0,-100.00,SSW,202,5.0,12.0,100,0.00,,,0.09,,2013-12-14 15:02:00,
2013-12-14 08:22:00,21.0,21.0,-100.00,ESE,116,4.0,5.0,100,0.00,,,0.09,,2013-12-14 15:22:00,
2013-12-14 08:33:00,21.0,21.0,-100.00,ESE,116,4.0,5.0,100,0.00,,,0.09,,2013-12-14 15:33:00,
2013-12-14 08:54:00,21.0,21.0,-100.00,SSE,165,2.0,4.0,100,0.00,,,0.09,,2013-12-14 15:54:00,
2013-12-14 09:04:00,21.0,21.0,-100.00,SSE,165,2.0,4.0,100,0.00,,,0.09,,2013-12-14 16:04:00,
2013-12-14 09:23:00,21.0,21.0,-100.00,SE,140,5.0,7.0,100,0.00,,,0.08,,2013-12-14 16:23:00,
2013-12-14 09:33:00,21.0,21.0,-100.00,SE,140,5.0,7.0,100,0.00,,,0.08,,2013-12-14 16:33:00,
2013-12-14 09:53:00,21.0,21.0,-100.00,SSE,160,4.0,5.0,100,0.00,,,0.08,,2013-12-14 16:53:00,
2013-12-14 10:03:00,21.0,21.0,-100.00,SSE,160,4.0,5.0,100,0.00,,,0.08,,2013-12-14 17:03:00,
2013-12-14 10:22:00,23.0,23.0,-100.00,ESE,123,5.0,7.0,100,0.00,,,0.08,,2013-12-14 17:22:00,
2013-12-14 10:33:00,23.0,23.0,-100.00,ESE,123,5.0,7.0,100,0.00,,,0.08,,2013-12-14 17:33:00,
2013-12-14 10:53:00,23.0,23.0,-100.00,SE,128,5.0,6.0,100,0.00,,,0.08,,2013-12-14 17:53:00,
2013-12-14 11:02:00,23.0,23.0,-100.00,SE,128,5.0,6.0,100,0.00,,,0.08,,2013-12-14 18:02:00,
2013-12-14 11:22:00,23.0,23.0,-100.00,SSE,148,4.0,6.0,100,0.00,,,0.08,,2013-12-14 18:22:00,
2013-12-14 11:32:00,23.0,23.0,-100.00,SSE,148,4.0,6.0,100,0.00,,,0.08,,2013-12-14 18:32:00,
2013-12-14 11:52:00,23.0,23.0,-100.00,SE,136,6.0,9.0,100,0.00,,,0.07,,2013-12-14 18:52:00,
2013-12-14 12:01:00,23.0,23.0,-100.00,SE,136,6.0,9.0,100,0.00,,,0.07,,2013-12-14 19:01:00,
2013-12-14 12:21:00,23.0,23.0,-100.00,SSE,154,6.0,8.0,100,0.00,,,0.07,,2013-12-14 19:21:00,
2013-12-14 12:32:00,23.0,23.0,-100.00,SSE,154,6.0,8.0,100,0.00,,,0.07,,2013-12-14 19:32:00,
2013-12-14 12:52:00,23.0,23.0,-100.00,SSE,155,4.0,6.0,100,0.00,,,0.07,,2013-12-14 19:52:00,
2013-12-14 13:01:00,23.0,23.0,-100.00,SSE,155,4.0,6.0,100,0.00,,,0.07,,2013-12-14 20:01:00,
2013-12-14 13:22:00,24.0,24.0,-100.00,SE,141,6.0,8.0,100,0.00,,,0.07,,2013-12-14 20:22:00,
2013-12-14 13:32:00,24.0,24.0,-100.00,SE,141,6.0,8.0,100,0.00,,,0.07,,2013-12-14 20:32:00,
2013-12-14 13:53:00,23.0,23.0,-100.00,SE,136,5.0,7.0,100,0.00,,,0.07,,2013-12-14 20:53:00,
2013-12-14 14:03:00,23.0,23.0,-100.00,SE,136,5.0,7.0,100,0.00,,,0.07,,2013-12-14 21:03:00,
2013-12-14 14:22:00,23.0,23.0,-100.00,SSE,160,5.0,7.0,100,0.00,,,0.07,,2013-12-14 21:22:00,
2013-12-14 14:34:00,23.0,23.0,-100.00,SSE,160,5.0,7.0,100,0.00,,,0.07,,2013-12-14 21:34:00,
2013-12-14 14:54:00,23.0,23.0,-100.00,SSE,160,6.0,9.0,100,0.00,,,0.07,,2013-12-14 21:54:00,
2013-12-14 15:03:00,23.0,23.0,-100.00,SSE,160,6.0,9.0,100,0.00,,,0.07,,2013-12-14 22:03:00,
2013-12-14 15:23:00,23.0,23.0,-100.00,SE,137,7.0,10.0,100,0.00,,,0.07,,2013-12-14 22:23:00,
2013-12-14 15:33:00,23.0,23.0,-100.00,SE,137,7.0,10.0,100,0.00,,,0.07,,2013-12-14 22:33:00,
2013-12-14 15:52:00,23.0,23.0,-100.00,SE,144,6.0,8.0,100,0.00,,,0.06,,2013-12-14 22:52:00,
2013-12-14 16:02:00,23.0,23.0,-100.00,SE,144,6.0,8.0,100,0.00,,,0.06,,2013-12-14 23:02:00,
2013-12-14 16:22:00,23.0,23.0,-100.00,SE,127,6.0,8.0,100,0.00,,,0.06,,2013-12-14 23:22:00,
2013-12-14 16:33:00,23.0,23.0,-100.00,SE,127,6.0,8.0,100,0.00,,,0.06,,2013-12-14 23:33:00,
2013-12-14 16:53:00,22.0,22.0,-100.00,SE,130,6.0,7.0,100,0.00,,,0.05,,2013-12-14 23:53:00,
2013-12-14 17:02:00,22.0,22.0,-100.00,SE,130,6.0,7.0,100,0.00,,,0.05,,2013-12-15 00:02:00,
2013-12-14 17:22:00,22.0,22.0,-100.00,SE,133,5.0,7.0,100,0.00,,,0.05,,2013-12-15 00:22:00,
2013-12-14 17:32:00,22.0,22.0,-100.00,SE,133,5.0,7.0,100,0.00,,,0.05,,2013-12-15 00:32:00,
2013-12-14 17:52:00,23.0,23.0,-100.00,SE,140,5.0,7.0,100,0.00,,,0.04,,2013-12-15 00:52:00,
2013-12-14 18:01:00,23.0,23.0,-100.00,SE,140,5.0,7.0,100,0.00,,,0.04,,2013-12-15 01:01:00,
2013-12-14 18:21:00,24.0,24.0,-100.00,SSE,165,5.0,7.0,100,0.00,,,0.04,,2013-12-15 01:21:00,
2013-12-14 18:32:00,24.0,24.0,-100.00,SSE,165,5.0,7.0,100,0.00,,,0.04,,2013-12-15 01:32:00,
2013-12-14 18:52:00,24.0,24.0,-100.00,South,191,3.0,5.0,100,0.00,,,0.04,,2013-12-15 01:52:00,
2013-12-14 19:01:00,24.0,24.0,-100.00,South,191,3.0,5.0,100,0.00,,,0.04,,2013-12-15 02:01:00,
2013-12-14 19:22:00,25.0,25.0,-100.00,SW,216,4.0,7.0,100,0.00,,,0.03,,2013-12-15 02:22:00,
2013-12-14 19:32:00,25.0,25.0,-100.00,SW,216,4.0,7.0,100,0.00,,,0.03,,2013-12-15 02:32:00,
2013-12-14 19:52:00,25.0,25.0,-100.00,SSE,147,3.0,5.0,100,0.00,,,0.03,,2013-12-15 02:52:00,
2013-12-14 20:02:00,25.0,25.0,-100.00,SSE,147,3.0,5.0,100,0.00,,,0.03,,2013-12-15 03:02:00,
2013-12-14 20:22:00,23.0,23.0,-100.00,SE,136,4.0,5.0,100,0.00,,,0.02,,2013-12-15 03:22:00,
2013-12-14 20:33:00,23.0,23.0,-100.00,SE,136,4.0,5.0,100,0.00,,,0.02,,2013-12-15 03:33:00,
2013-12-14 20:54:00,23.0,23.0,-100.00,SE,144,6.0,8.0,100,0.00,,,0.02,,2013-12-15 03:54:00,
2013-12-14 21:02:00,-999.0,-99.9,-100.00,SE,144,6.0,8.0,-999,0.00,,,0.02,,2013-12-15 04:02:00,
2013-12-14 21:23:00,22.0,22.0,-100.00,SE,137,6.0,8.0,100,0.00,,,0.02,,2013-12-15 04:23:00,
2013-12-14 21:33:00,22.0,22.0,-100.00,SE,137,6.0,8.0,100,0.00,,,0.02,,2013-12-15 04:33:00,
2013-12-14 21:53:00,22.0,22.0,-100.00,SSE,147,6.0,8.0,100,0.00,,,0.01,,2013-12-15 04:53:00,
2013-12-14 22:02:00,22.0,22.0,-100.00,SSE,147,6.0,8.0,100,0.00,,,0.01,,2013-12-15 05:02:00,
2013-12-14 22:22:00,22.0,22.0,-100.00,SE,144,6.0,8.0,100,0.00,,,0.01,,2013-12-15 05:22:00,
2013-12-14 22:33:00,22.0,22.0,-100.00,SE,144,6.0,8.0,100,0.00,,,0.01,,2013-12-15 05:33:00,
2013-12-14 22:53:00,21.0,21.0,-100.00,SE,138,7.0,8.0,100,0.00,,,0.01,,2013-12-15 05:53:00,
2013-12-14 23:02:00,21.0,21.0,-100.00,SE,138,7.0,8.0,100,0.00,,,0.01,,2013-12-15 06:02:00,
2013-12-14 23:22:00,21.0,21.0,-100.00,SSE,155,6.0,7.0,100,0.00,,,0.01,,2013-12-15 06:22:00,
2013-12-14 23:31:00,21.0,21.0,-100.00,SSE,155,6.0,7.0,100,0.00,,,0.01,,2013-12-15 06:31:00,
2013-12-14 23:52:00,20.0,20.0,-100.00,SSE,150,4.0,8.0,100,0.00,,,0.00,,2013-12-15 06:52:00,